Arkansas City, Arkansas
Current Conditions -  °F | °C
As of 7:53 PM on Friday 31 Oct 2014 (Local Time) from KGLH Reporting Station
Clear Clear  
Wind Chill: 54°   Ceiling: Unl
Heat Index: 54°   Visibility: 10mi
Dew Point: 33°   Wind: 18mph
Humidity: 45%   Direction: 360°N
Pressure: 30.24"   Gusts: NA
Location:  33.61°N, 91.21°W
Report Text: KGLH 010053Z AUTO 36016KT 10SM CLR 12/01 A3024 RMK AO2 SLP248 T01220006
Loading
Personal Weather Stations






























Interactive Weather Map
Tropical Storm Tracking
New forecast layout! Learn more

10-Day Weather Forecast

Advertisements
Track Severe Weather on mobile